Time;durP1;ratioP1;P1;durP2;ratioP2;P2;SDS_P1;SDS_P2;PMS_P1;PMS_P2;Temp;Humidity;BMP_temperature;BMP_pressure;BME280_temperature;BME280_humidity;BME280_pressure;Samples;Min_cycle;Max_cycle;Signal;HPM_P1;HPM_P2
2022/11/08 00:01:30;;;;;;;0.40;0.40;;;20.70;62.50;;;20.69;45.23;95135.59;4863558;29;20199;-74
2022/11/08 00:03:07;;;;;;;0.40;0.40;;;20.70;62.40;;;20.69;45.60;95132.13;4861263;29;20223;-74
2022/11/08 00:13:56;;;;;;;0.40;0.40;;;20.60;62.40;;;20.68;45.45;95133.16;4850602;29;20214;-74
2022/11/08 00:16:24;;;;;;;0.43;0.43;;;20.70;63.40;;;20.67;45.50;95131.59;4864167;29;20627;-74
2022/11/08 00:18:51;;;;;;;0.40;0.40;;;20.60;62.40;;;20.68;45.08;95130.50;4848463;29;20714;-74
2022/11/08 00:21:18;;;;;;;0.50;0.50;;;20.60;62.40;;;20.67;45.41;95126.25;4848012;29;20191;-74
2022/11/08 00:23:46;;;;;;;0.43;0.43;;;20.60;62.40;;;20.68;45.45;95126.00;4833010;29;20195;-74
2022/11/08 00:26:14;;;;;;;0.40;0.40;;;20.60;62.40;;;20.68;45.42;95123.34;4847749;29;20267;-74
2022/11/08 00:28:41;;;;;;;0.40;0.40;;;20.60;62.40;;;20.66;45.46;95121.97;4847757;29;20508;-74
2022/11/08 00:31:08;;;;;;;0.40;0.40;;;20.60;62.40;;;20.64;45.30;95117.69;4863018;29;20561;-74
2022/11/08 00:33:36;;;;;;;0.50;0.50;;;20.60;62.50;;;20.68;45.35;95122.50;4864164;29;20206;-74
2022/11/08 00:36:04;;;;;;;0.40;0.40;;;20.60;62.40;;;20.69;45.13;95118.78;4844578;29;20201;-74
2022/11/08 00:38:31;;;;;;;0.50;0.50;;;20.60;62.40;;;20.66;45.60;95125.44;4847810;29;20314;-74
2022/11/08 00:40:59;;;;;;;0.40;0.40;;;20.60;62.40;;;20.66;45.43;95122.78;4862708;29;20638;-74
2022/11/08 00:43:26;;;;;;;0.40;0.40;;;20.60;62.50;;;20.66;45.34;95130.75;4832660;29;20199;-75
2022/11/08 00:45:53;;;;;;;0.50;0.50;;;20.60;62.50;;;20.66;45.44;95127.31;4862655;29;20623;-74
2022/11/08 00:48:21;;;;;;;0.45;0.45;;;20.60;62.40;;;20.66;45.08;95130.75;4863401;29;20279;-74
2022/11/08 00:50:48;;;;;;;0.50;0.50;;;20.60;62.40;;;20.66;45.44;95129.97;4829401;29;20241;-75
2022/11/08 00:53:15;;;;;;;0.40;0.40;;;20.60;62.40;;;20.63;45.11;95118.75;4861407;29;20600;-74
2022/11/08 00:55:42;;;;;;;0.38;0.38;;;20.60;62.40;;;20.69;45.31;95132.13;4862176;29;20618;-75
2022/11/08 00:58:10;;;;;;;0.50;0.50;;;20.60;62.30;;;20.67;45.05;95127.06;4847456;29;20210;-75
2022/11/08 01:00:37;;;;;;;0.40;0.40;;;20.60;62.40;;;20.66;45.41;95128.09;4863337;29;20198;-74
2022/11/08 01:03:19;;;;;;;0.40;0.40;;;20.60;62.40;;;20.67;45.23;95128.91;4847377;29;20223;-74
2022/11/08 01:05:47;;;;;;;0.40;0.40;;;20.60;62.40;;;20.64;45.21;95128.34;4835862;29;20211;-74
2022/11/08 01:08:16;;;;;;;0.40;0.40;;;20.60;62.30;;;20.64;45.17;95123.03;4862477;29;20519;-74
2022/11/08 01:10:48;;;;;;;0.40;0.40;;;20.60;63.30;;;20.65;45.09;95123.81;4864087;29;20314;-74
2022/11/08 01:13:17;;;;;;;0.60;0.60;;;20.60;62.40;;;20.64;44.69;95116.88;4850802;29;20218;-74
2022/11/08 01:15:45;;;;;;;0.30;0.30;;;20.60;62.40;;;20.62;45.13;95117.13;4835171;29;20216;-74
2022/11/08 01:18:15;;;;;;;0.40;0.40;;;20.60;62.30;;;20.63;45.44;95109.97;4865617;29;20575;-74
2022/11/08 01:20:46;;;;;;;0.40;0.40;;;20.60;62.40;;;20.63;45.24;95115.28;4850885;29;20266;-75
2022/11/08 01:23:14;;;;;;;0.35;0.35;;;20.60;62.30;;;20.63;44.93;95112.63;4850000;29;20295;-75
2022/11/08 01:25:45;;;;;;;0.40;0.40;;;20.60;62.40;;;20.63;45.33;95109.97;4835077;29;20217;-74
2022/11/08 01:28:12;;;;;;;0.57;0.57;;;20.60;62.30;;;20.60;44.99;95100.63;4865540;29;20265;-74
2022/11/08 01:30:42;;;;;;;0.30;0.30;;;20.60;62.40;;;20.60;44.95;95100.63;4849992;29;20220;-75
2022/11/08 01:33:11;;;;;;;0.40;0.40;;;20.60;62.40;;;20.58;45.38;95102.72;4834982;29;20192;-74
2022/11/08 01:35:40;;;;;;;0.40;0.40;;;20.60;62.40;;;20.62;45.06;95103.81;4865254;29;20195;-75
2022/11/08 01:38:08;;;;;;;0.40;0.40;;;20.60;62.30;;;20.61;45.40;95099.53;4849342;29;20222;-75
2022/11/08 01:40:45;;;;;;;0.40;0.40;;;20.50;62.30;;;20.60;45.47;95095.28;4849783;29;20564;-75
2022/11/08 01:43:34;;;;;;;0.50;0.50;;;20.60;62.40;;;20.58;45.49;95092.06;4881645;29;20179;-74
2022/11/08 01:46:33;;;;;;;0.40;0.40;;;20.50;62.30;;;20.58;45.38;95088.56;4880458;29;20229;-75
2022/11/08 01:49:34;;;;;;;0.40;0.40;;;20.50;62.30;;;20.56;45.43;95085.38;4865173;29;20187;-75
2022/11/08 01:52:46;;;;;;;0.40;0.40;;;20.50;62.30;;;20.52;45.08;95082.41;4834950;29;20211;-74
2022/11/08 01:55:21;;;;;;;0.40;0.40;;;20.50;62.30;;;20.53;45.28;95077.84;4879571;29;20220;-75
2022/11/08 01:58:16;;;;;;;0.40;0.40;;;20.50;63.20;;;20.51;44.97;95078.13;4864816;29;20300;-75
2022/11/08 02:00:44;;;;;;;0.40;0.40;;;20.50;62.30;;;20.51;44.99;95072.78;4863919;29;20267;-74
2022/11/08 02:03:15;;;;;;;0.40;0.40;;;20.50;62.30;;;20.51;45.09;95075.44;4834682;29;20209;-74
2022/11/08 02:05:43;;;;;;;0.40;0.40;;;20.50;62.30;;;20.51;45.00;95070.13;4865066;29;20241;-75
2022/11/08 02:08:35;;;;;;;0.55;0.55;;;20.50;62.40;;;20.47;45.40;95061.03;4864721;29;20653;-75
2022/11/08 02:11:04;;;;;;;0.40;0.40;;;20.50;62.30;;;20.51;45.19;95072.78;4843933;29;20314;-75
2022/11/08 02:13:35;;;;;;;0.40;0.40;;;20.50;62.30;;;20.51;45.07;95078.13;4831203;29;20239;-74
2022/11/08 02:16:08;;;;;;;0.45;0.45;;;20.50;62.30;;;20.53;45.53;95077.84;4877038;29;20212;-75
2022/11/08 02:18:35;;;;;;;0.40;0.40;;;20.50;62.30;;;20.51;45.36;95061.31;4861608;29;20347;-74
2022/11/08 02:21:31;;;;;;;0.40;0.40;;;20.50;62.40;;;20.51;45.11;95064.78;4846394;29;20220;-74
2022/11/08 02:24:02;;;;;;;0.40;0.40;;;20.40;62.20;;;20.51;45.31;95064.78;4861414;29;20204;-75
2022/11/08 02:26:32;;;;;;;0.40;0.40;;;20.50;62.40;;;20.52;45.42;95065.59;4846218;29;20206;-75
2022/11/08 02:29:34;;;;;;;0.40;0.40;;;20.50;62.40;;;20.46;45.52;95057.53;4877184;29;20202;-74
2022/11/08 02:32:03;;;;;;;0.30;0.30;;;20.50;62.40;;;20.46;45.14;95052.22;4861456;29;20233;-75
2022/11/08 02:34:44;;;;;;;0.40;0.40;;;20.50;62.40;;;20.50;45.14;95051.72;4861334;29;20202;-75
2022/11/08 02:37:15;;;;;;;0.40;0.40;;;20.40;62.20;;;20.40;45.24;95039.91;4862386;29;20186;-74
2022/11/08 02:39:43;;;;;;;0.50;0.50;;;20.50;62.40;;;20.45;45.04;95047.16;4831205;29;20209;-75
2022/11/08 02:42:17;;;;;;;0.47;0.47;;;20.40;62.20;;;20.50;45.42;95054.41;4846050;29;20215;-74
2022/11/08 02:44:46;;;;;;;0.35;0.35;;;20.40;62.20;;;20.48;44.91;95054.63;4846166;29;20202;-74
2022/11/08 02:47:14;;;;;;;0.40;0.40;;;20.40;62.20;;;20.48;45.06;95050.13;4876638;29;20214;-74
2022/11/08 02:49:41;;;;;;;0.30;0.30;;;20.40;62.20;;;20.48;45.08;95050.13;4862097;29;20672;-74
2022/11/08 02:52:09;;;;;;;0.47;0.47;;;20.40;62.20;;;20.46;45.15;95049.56;4864699;29;20217;-74
2022/11/08 02:54:37;;;;;;;0.40;0.40;;;20.40;62.20;;;20.50;45.38;95047.19;4865249;29;20198;-74
2022/11/08 02:57:04;;;;;;;0.40;0.40;;;20.40;62.30;;;20.48;45.13;95044.78;4834249;29;20698;-74
2022/11/08 02:59:31;;;;;;;0.40;0.40;;;20.40;62.20;;;20.47;45.40;95034.38;4864982;29;20205;-74
2022/11/08 03:01:58;;;;;;;0.50;0.50;;;20.40;62.30;;;20.46;45.12;95033.56;4864931;29;20203;-74
2022/11/08 03:04:26;;;;;;;0.50;0.50;;;20.40;62.30;;;20.49;45.16;95032.25;4834058;29;20214;-73
2022/11/08 03:06:53;;;;;;;0.40;0.40;;;20.40;62.30;;;20.45;45.30;95028.50;4864615;29;20590;-74
2022/11/08 03:09:21;;;;;;;0.45;0.45;;;20.40;62.20;;;20.48;44.93;95033.31;4849181;29;20211;-75
2022/11/08 03:11:48;;;;;;;0.40;0.40;;;20.40;62.30;;;20.47;45.28;95035.19;4879743;29;20679;-74
2022/11/08 03:14:15;;;;;;;0.40;0.40;;;20.40;62.20;;;20.48;44.99;95038.63;4865278;29;20206;-74
2022/11/08 03:16:42;;;;;;;0.40;0.40;;;20.40;62.30;;;20.42;45.04;95018.31;4864551;29;20201;-74
2022/11/08 03:19:13;;;;;;;0.60;0.60;;;20.40;62.20;;;20.44;45.26;95027.69;4864481;29;20628;-74
2022/11/08 03:21:40;;;;;;;0.50;0.50;;;20.40;62.20;;;20.43;45.10;95019.94;4864631;29;20200;-74
2022/11/08 03:24:08;;;;;;;0.40;0.40;;;20.40;62.20;;;20.45;44.91;95021.28;4848985;29;20198;-74
2022/11/08 03:26:35;;;;;;;0.50;0.50;;;20.40;62.20;;;20.44;45.19;95022.34;4865382;29;20201;-74
2022/11/08 03:29:02;;;;;;;0.43;0.43;;;20.40;62.20;;;20.45;45.30;95023.16;4865079;29;20190;-74
2022/11/08 03:31:29;;;;;;;0.50;0.50;;;20.40;62.20;;;20.41;45.03;95008.72;4833636;29;20249;-74
2022/11/08 03:33:56;;;;;;;0.50;0.50;;;20.40;62.20;;;20.43;45.08;95022.59;4864059;29;20286;-74
2022/11/08 03:36:24;;;;;;;0.45;0.45;;;20.40;62.30;;;20.44;45.11;95025.00;4864125;29;20190;-75
2022/11/08 03:38:51;;;;;;;0.40;0.40;;;20.40;62.20;;;20.42;45.13;95015.66;4848935;29;20235;-75
2022/11/08 03:41:19;;;;;;;0.40;0.40;;;20.40;62.30;;;20.42;45.04;95023.66;4849087;29;20204;-75
2022/11/08 03:43:46;;;;;;;0.40;0.40;;;20.40;62.30;;;20.44;44.75;95026.88;4864679;29;20202;-74
2022/11/08 03:46:14;;;;;;;0.40;0.40;;;20.40;62.20;;;20.43;45.00;95019.94;4848462;29;20218;-74
2022/11/08 03:48:41;;;;;;;0.40;0.40;;;20.40;62.30;;;20.42;45.33;95029.81;4848716;29;20229;-75
2022/11/08 03:51:08;;;;;;;0.40;0.40;;;20.40;62.30;;;20.41;44.84;95019.38;4848462;29;20249;-74
2022/11/08 03:53:36;;;;;;;0.40;0.40;;;20.40;62.20;;;20.41;45.25;95020.19;4863732;29;20760;-75
2022/11/08 03:56:03;;;;;;;0.40;0.40;;;20.40;62.20;;;20.42;45.43;95021.81;4832956;29;20270;-74
2022/11/08 03:58:30;;;;;;;0.40;0.40;;;20.40;62.30;;;20.37;44.91;95012.97;4864660;29;20205;-74
2022/11/08 04:01:03;;;;;;;0.57;0.57;;;20.40;62.30;;;20.39;45.06;95022.31;4847992;29;20206;-74
2022/11/08 04:03:31;;;;;;;0.40;0.40;;;20.40;62.30;;;20.37;45.16;95015.63;4863637;29;20190;-74
2022/11/08 04:06:02;;;;;;;0.40;0.40;;;20.40;62.20;;;20.41;45.22;95019.38;4848029;29;20204;-74
2022/11/08 04:08:30;;;;;;;0.40;0.40;;;20.40;62.20;;;20.41;45.10;95030.84;4848414;29;20203;-74
2022/11/08 04:15:13;;;;;;;0.40;0.40;;;20.40;62.30;;;20.40;44.85;95028.44;4848019;29;20249;-74
2022/11/08 04:16:34;;;;;;;0.45;0.45;;;20.40;62.20;;;20.37;45.18;95027.06;4856683;29;20277;-74
2022/11/08 04:21:50;;;;;;;0.40;0.40;;;20.30;62.10;;;20.35;45.25;95023.88;4863301;29;20186;-74
2022/11/08 04:24:17;;;;;;;0.40;0.40;;;20.30;62.20;;;20.36;45.30;95025.47;4832315;29;20262;-74
2022/11/08 04:26:45;;;;;;;0.50;0.50;;;20.30;62.10;;;20.31;45.22;95012.09;4847791;29;20634;-74
2022/11/08 04:29:12;;;;;;;0.40;0.40;;;20.30;62.20;;;20.30;45.33;95013.16;4847905;29;20586;-73
2022/11/08 04:31:40;;;;;;;0.50;0.50;;;20.30;62.20;;;20.36;45.40;95019.34;4847842;29;20218;-74
2022/11/08 04:34:07;;;;;;;0.40;0.40;;;20.30;62.20;;;20.35;45.08;95013.22;4863874;29;20288;-74
2022/11/08 04:36:35;;;;;;;0.50;0.50;;;20.30;62.20;;;20.33;45.21;95010.00;4844575;29;20212;-74
2022/11/08 04:39:02;;;;;;;0.50;0.50;;;20.30;62.20;;;;;;4829690;29;20226;-74
2022/11/08 04:41:29;;;;;;;0.43;0.43;;;20.30;62.20;;;20.31;45.13;95010.25;4856400;29;20596;-74
2022/11/08 04:43:58;;;;;;;0.40;0.40;;;20.30;62.20;;;20.25;45.09;94992.59;4832606;29;20236;-74
2022/11/08 04:46:27;;;;;;;0.40;0.40;;;20.30;62.20;;;20.33;45.24;95010.00;4832086;29;20202;-74
2022/11/08 04:48:57;;;;;;;0.50;0.50;;;20.30;62.20;;;20.33;45.17;94999.34;4847797;29;20218;-74
2022/11/08 04:51:31;;;;;;;0.40;0.40;;;20.30;62.20;;;20.30;45.27;95005.97;4861867;29;20297;-74
2022/11/08 04:54:00;;;;;;;0.40;0.40;;;20.30;62.20;;;20.28;45.42;95000.09;4832303;29;20186;-74
2022/11/08 04:56:29;;;;;;;0.30;0.30;;;20.30;63.10;;;20.30;44.92;95011.28;4863411;29;20190;-74
2022/11/08 04:58:59;;;;;;;0.40;0.40;;;20.30;62.20;;;20.26;44.85;95007.53;4862548;29;20212;-74
2022/11/08 05:01:29;;;;;;;0.40;0.40;;;20.30;62.20;;;20.31;45.28;95014.75;4817110;29;20208;-75
2022/11/08 05:03:57;;;;;;;0.40;0.40;;;20.30;62.20;;;20.24;44.82;94998.97;4847227;29;20310;-74
2022/11/08 05:06:30;;;;;;;0.40;0.40;;;20.30;62.20;;;20.24;45.13;94995.53;4816723;29;20544;-74
2022/11/08 05:08:58;;;;;;;0.40;0.40;;;20.30;62.20;;;20.31;45.26;95002.25;4862286;29;20199;-75
2022/11/08 05:11:28;;;;;;;0.50;0.50;;;20.30;62.20;;;20.30;44.98;95002.50;4831871;29;20255;-74
2022/11/08 05:13:56;;;;;;;0.40;0.40;;;20.30;62.20;;;20.30;45.35;95010.50;4846392;29;20183;-74
2022/11/08 05:16:31;;;;;;;0.50;0.50;;;20.30;62.20;;;20.29;44.97;95004.34;4862170;29;20189;-74
2022/11/08 05:18:58;;;;;;;0.40;0.40;;;20.30;62.20;;;20.28;45.06;94997.41;4847479;29;20229;-74
2022/11/08 05:24:16;;;;;;;0.50;0.50;;;20.30;62.20;;;20.27;45.32;95000.34;4862278;29;20262;-75
2022/11/08 05:26:47;;;;;;;0.40;0.40;;;20.30;62.20;;;20.26;45.12;95004.88;4831835;29;20198;-75
2022/11/08 05:29:15;;;;;;;0.50;0.50;;;20.30;62.20;;;20.27;45.47;95005.66;4831722;29;20210;-74
2022/11/08 05:31:42;;;;;;;0.40;0.40;;;20.20;62.20;;;20.27;45.39;95013.66;4862096;29;20225;-74
2022/11/08 05:34:09;;;;;;;0.40;0.40;;;20.30;62.20;;;20.27;45.15;95016.31;4831978;29;20630;-75
2022/11/08 05:36:37;;;;;;;0.50;0.50;;;20.30;62.50;;;20.25;44.90;95008.59;4846693;29;20203;-75
2022/11/08 05:39:04;;;;;;;0.40;0.40;;;20.20;62.20;;;20.26;44.82;95015.53;4816375;29;20717;-75
2022/11/08 05:41:32;;;;;;;0.40;0.40;;;20.30;62.20;;;20.26;45.19;95009.38;4847383;29;20229;-74
2022/11/08 05:44:01;;;;;;;0.50;0.50;;;20.20;62.10;;;20.25;45.20;95005.09;4816894;29;20206;-75
2022/11/08 05:46:28;;;;;;;0.40;0.40;;;20.20;62.20;;;20.25;45.07;95010.44;4831550;29;20198;-74
2022/11/08 05:48:55;;;;;;;0.60;0.60;;;20.20;62.20;;;20.25;44.97;95010.44;4862698;29;20532;-74
2022/11/08 05:51:22;;;;;;;0.50;0.50;;;20.20;62.20;;;20.24;45.31;95011.50;4846461;29;20218;-75
2022/11/08 05:53:49;;;;;;;0.45;0.45;;;20.20;62.20;;;20.19;44.85;95014.91;4861700;29;20224;-75
2022/11/08 05:56:17;;;;;;;0.30;0.30;;;20.20;62.20;;;20.23;45.40;95012.56;4831124;29;20210;-74
2022/11/08 05:58:45;;;;;;;0.50;0.50;;;20.20;62.20;;;20.24;45.39;95012.31;4846805;29;20258;-75
2022/11/08 06:01:16;;;;;;;0.40;0.40;;;20.20;62.20;;;20.23;44.91;95002.69;4846261;29;20214;-75
2022/11/08 06:03:44;;;;;;;0.40;0.40;;;20.20;62.20;;;20.23;44.97;95004.56;4831450;29;20308;-74
2022/11/08 06:06:19;;;;;;;0.40;0.40;;;20.20;62.20;;;20.24;44.76;95003.53;4846501;29;20206;-75
2022/11/08 06:08:48;;;;;;;0.40;0.40;;;20.20;62.10;;;20.23;44.84;95007.22;4846487;29;20614;-75
2022/11/08 06:11:24;;;;;;;0.43;0.43;;;20.20;62.20;;;20.22;44.99;95008.28;4831195;29;20750;-75
2022/11/08 06:13:53;;;;;;;0.40;0.40;;;20.20;62.20;;;20.20;45.35;95005.88;4846110;29;20686;-75
2022/11/08 06:16:22;;;;;;;0.40;0.40;;;20.20;62.20;;;20.22;45.00;95002.97;4861441;29;20631;-75
2022/11/08 06:18:50;;;;;;;0.40;0.40;;;20.20;62.20;;;20.21;45.24;95001.34;4846588;29;20539;-75
2022/11/08 06:21:19;;;;;;;0.32;0.32;;;20.20;62.20;;;20.23;45.13;95001.91;4831338;29;20202;-75
2022/11/08 06:23:47;;;;;;;0.50;0.50;;;20.20;62.20;;;20.20;45.13;95007.72;4846278;29;20285;-75
2022/11/08 06:26:14;;;;;;;0.40;0.40;;;20.20;62.20;;;20.21;44.85;95004.00;4864627;29;20535;-75
2022/11/08 06:28:41;;;;;;;0.50;0.50;;;20.20;62.20;;;20.21;45.07;95009.34;4850162;29;20206;-75
2022/11/08 06:31:08;;;;;;;0.50;0.50;;;20.20;62.20;;;20.23;45.00;95012.56;4834671;29;20218;-75
2022/11/08 06:33:36;;;;;;;0.40;0.40;;;20.20;62.30;;;20.21;45.19;95009.34;4850052;29;20213;-74
2022/11/08 06:36:05;;;;;;;0.40;0.40;;;20.20;62.20;;;20.22;44.96;95016.28;4819323;29;20614;-74
2022/11/08 06:38:32;;;;;;;0.40;0.40;;;20.20;62.20;;;20.21;45.17;95010.13;4849872;29;20220;-75
2022/11/08 06:41:01;;;;;;;0.50;0.50;;;20.20;63.10;;;20.21;45.02;95020.78;4849828;29;20208;-75
2022/11/08 06:43:28;;;;;;;0.40;0.40;;;20.20;62.20;;;20.22;45.21;95025.06;4864750;29;20619;-74
2022/11/08 06:46:01;;;;;;;0.40;0.40;;;20.20;62.20;;;20.18;45.11;95013.31;4849415;29;20298;-75
2022/11/08 06:48:28;;;;;;;0.40;0.40;;;20.20;62.20;;;20.22;45.27;95024.25;4865136;29;20211;-74
2022/11/08 06:51:02;;;;;;;0.50;0.50;;;20.20;62.20;;;20.23;45.02;95023.22;4849438;29;20293;-75
2022/11/08 06:53:30;;;;;;;0.50;0.50;;;20.20;62.20;;;20.23;45.17;95020.56;4849433;29;20209;-75
2022/11/08 06:56:01;;;;;;;0.40;0.40;;;20.20;62.20;;;20.20;44.83;95015.72;4849990;29;20254;-74
2022/11/08 06:58:30;;;;;;;0.60;0.60;;;20.20;62.20;;;20.23;45.22;95024.00;4849640;29;20653;-74
2022/11/08 07:00:57;;;;;;;0.50;0.50;;;20.20;62.20;;;20.20;45.05;95029.84;4849326;29;20202;-75
2022/11/08 07:03:25;;;;;;;0.55;0.55;;;20.20;62.20;;;20.25;45.20;95031.75;4834357;29;20266;-74
2022/11/08 07:05:52;;;;;;;0.40;0.40;;;20.20;62.30;;;20.24;44.83;95035.47;4818835;29;20222;-74
2022/11/08 07:08:19;;;;;;;0.45;0.45;;;20.20;62.20;;;20.25;45.09;95040.56;4865448;29;20195;-74
2022/11/08 07:10:50;;;;;;;0.45;0.45;;;20.20;62.20;;;20.26;44.97;95047.50;4819598;29;20575;-74
2022/11/08 07:13:17;;;;;;;0.43;0.43;;;20.20;62.30;;;20.25;44.90;95043.22;4864802;29;20634;-75
2022/11/08 07:15:46;;;;;;;0.40;0.40;;;20.20;62.20;;;20.28;44.95;95041.91;4849258;29;20302;-74
2022/11/08 07:18:16;;;;;;;0.38;0.38;;;20.20;62.20;;;20.29;44.73;95038.97;4834130;29;20194;-75
2022/11/08 07:20:43;;;;;;;0.50;0.50;;;20.20;62.20;;;20.29;45.40;95046.19;4833675;29;20634;-74
2022/11/08 07:23:11;;;;;;;0.40;0.40;;;20.20;62.20;;;20.27;45.02;95034.97;4818776;29;20213;-74
2022/11/08 07:25:38;;;;;;;0.40;0.40;;;20.20;62.30;;;20.33;45.28;95046.50;4849080;29;20543;-74
2022/11/08 07:28:12;;;;;;;0.50;0.50;;;20.20;62.30;;;20.32;45.25;95045.66;4833795;29;20225;-74
2022/11/08 07:30:40;;;;;;;0.50;0.50;;;20.20;62.20;;;;;;4848933;29;20201;-74
2022/11/08 07:33:07;;;;;;;0.50;0.50;;;20.30;62.30;;;20.33;45.33;95038.50;4848711;29;20206;-74
2022/11/08 07:35:34;;;;;;;0.40;0.40;;;20.30;62.30;;;20.36;45.37;95044.13;4833038;29;20273;-75
2022/11/08 07:38:01;;;;;;;0.40;0.40;;;20.30;62.30;;;20.37;44.91;95035.06;4848221;29;20203;-75
2022/11/08 07:40:29;;;;;;;0.47;0.47;;;20.30;62.30;;;20.37;45.04;95043.06;4848648;29;20646;-74
2022/11/08 07:42:59;;;;;;;0.32;0.32;;;20.30;62.30;;;20.39;44.82;95042.81;4864197;29;20255;-74
2022/11/08 07:45:43;;;;;;;0.40;0.40;;;20.30;62.30;;;20.39;44.75;95046.28;4835439;29;20217;-74
2022/11/08 07:48:12;;;;;;;0.40;0.40;;;20.30;62.30;;;20.39;45.24;95040.94;4863892;29;20201;-74
2022/11/08 07:50:41;;;;;;;0.50;0.50;;;20.30;62.30;;;20.34;44.68;95022.25;4848813;29;20261;-74
2022/11/08 07:53:09;;;;;;;0.50;0.50;;;20.30;62.30;;;20.40;45.31;95037.25;4848438;29;20217;-74
2022/11/08 07:55:38;;;;;;;0.40;0.40;;;20.30;62.30;;;20.40;44.90;95033.78;4848471;29;20536;-75
2022/11/08 07:58:09;;;;;;;0.40;0.40;;;20.30;62.30;;;20.41;45.16;95038.84;4833316;29;20285;-75
2022/11/08 08:00:39;;;;;;;0.50;0.50;;;20.30;62.30;;;20.41;45.14;95030.03;4848263;29;20198;-75
2022/11/08 08:03:10;;;;;;;0.40;0.40;;;20.30;62.20;;;20.43;44.88;95034.09;4848437;29;20191;-74
2022/11/08 08:05:43;;;;;;;0.50;0.50;;;20.30;62.20;;;20.43;45.63;95039.41;4848093;29;20198;-75
2022/11/08 08:08:13;;;;;;;0.43;0.43;;;20.30;62.20;;;20.43;45.51;95028.75;4848219;29;20656;-74
2022/11/08 08:10:40;;;;;;;0.40;0.40;;;20.40;62.50;;;20.45;45.10;95034.63;4862921;29;20206;-74
2022/11/08 08:13:08;;;;;;;0.40;0.40;;;20.40;62.20;;;20.47;45.16;95032.50;4864654;29;20518;-75
2022/11/08 08:15:35;;;;;;;0.40;0.40;;;20.40;62.30;;;20.49;45.07;95032.25;4848066;29;20306;-75
2022/11/08 08:18:06;;;;;;;0.50;0.50;;;20.40;62.30;;;20.47;45.28;95026.41;4863154;29;20544;-75
2022/11/08 08:20:34;;;;;;;0.40;0.40;;;20.40;62.30;;;20.48;45.28;95027.97;4863166;29;20249;-74
2022/11/08 08:23:01;;;;;;;0.40;0.40;;;20.40;62.30;;;20.48;45.12;95022.66;4863403;29;20198;-74
2022/11/08 08:25:32;;;;;;;0.50;0.50;;;20.40;62.30;;;20.44;45.16;95011.69;4847625;29;20639;-75
2022/11/08 08:28:00;;;;;;;0.40;0.40;;;20.40;62.30;;;20.45;45.23;95018.63;4863296;29;20638;-75
2022/11/08 08:30:30;;;;;;;0.50;0.50;;;20.40;62.20;;;20.52;45.25;95023.78;4848012;29;20191;-75
2022/11/08 08:33:12;;;;;;;0.40;0.40;;;20.40;62.30;;;20.52;44.95;95023.78;4832781;29;20210;-75
2022/11/08 08:35:56;;;;;;;0.40;0.40;;;20.40;62.20;;;20.52;44.92;95017.63;4836294;29;20199;-74
2022/11/08 08:38:24;;;;;;;0.40;0.40;;;20.40;62.20;;;20.52;44.87;95018.44;4847876;29;20278;-75
2022/11/08 08:40:51;;;;;;;0.40;0.40;;;20.40;62.20;;;20.52;45.17;95013.13;4847540;29;20210;-75
2022/11/08 08:43:19;;;;;;;0.30;0.30;;;20.40;62.20;;;20.53;44.88;95013.91;4832589;29;20273;-75
2022/11/08 08:45:47;;;;;;;0.50;0.50;;;20.40;62.20;;;20.55;45.21;95019.81;4862653;29;20282;-74
2022/11/08 08:48:15;;;;;;;0.40;0.40;;;20.50;62.30;;;20.55;45.06;95020.59;4847683;29;20229;-75
2022/11/08 08:50:42;;;;;;;0.43;0.43;;;20.50;62.30;;;20.55;44.83;95023.25;4862768;29;20622;-75
2022/11/08 08:53:10;;;;;;;0.45;0.45;;;20.50;62.30;;;20.56;44.85;95030.19;4832805;29;20303;-74
2022/11/08 08:55:38;;;;;;;0.40;0.40;;;20.50;62.20;;;20.58;45.31;95037.94;4863334;29;20213;-75
2022/11/08 08:58:06;;;;;;;0.35;0.35;;;20.50;62.30;;;20.59;44.77;95040.38;4847460;29;20199;-74
2022/11/08 09:00:33;;;;;;;0.47;0.47;;;20.50;62.30;;;20.59;44.99;95034.22;4832322;29;20216;-75
2022/11/08 09:03:21;;;;;;;0.40;0.40;;;20.50;62.20;;;20.59;45.10;95044.88;4849940;29;20218;-75
2022/11/08 09:05:49;;;;;;;0.60;0.60;;;20.50;63.10;;;20.60;44.71;95031.31;4832076;29;20217;-75
2022/11/08 09:08:16;;;;;;;0.43;0.43;;;20.50;62.20;;;20.60;45.29;95028.66;4847321;29;20205;-75
2022/11/08 09:10:43;;;;;;;0.40;0.40;;;20.50;62.20;;;20.61;44.88;95030.25;4816541;29;20198;-75
2022/11/08 09:13:10;;;;;;;0.40;0.40;;;20.50;62.20;;;20.63;45.13;95030.81;4832395;29;20210;-74
2022/11/08 09:15:38;;;;;;;0.40;0.40;;;20.50;62.20;;;20.64;45.08;95028.94;4847051;29;20200;-74
2022/11/08 09:18:05;;;;;;;0.50;0.50;;;20.50;62.10;;;20.64;44.91;95021.75;4847143;29;20269;-74
2022/11/08 09:20:33;;;;;;;0.40;0.40;;;20.50;62.10;;;20.65;45.02;95030.53;4847163;29;20231;-74
2022/11/08 09:23:01;;;;;;;0.40;0.40;;;20.50;62.20;;;20.64;44.65;95023.59;4862454;29;20201;-74
2022/11/08 09:25:29;;;;;;;0.30;0.30;;;20.50;62.20;;;20.63;45.07;95020.16;4863357;29;20558;-74
2022/11/08 09:27:56;;;;;;;0.40;0.40;;;20.60;62.20;;;20.68;45.04;95022.06;4831500;29;20208;-74
2022/11/08 09:30:23;;;;;;;0.40;0.40;;;20.60;62.20;;;20.59;45.06;95008.38;4831855;29;20274;-75
2022/11/08 09:32:54;;;;;;;0.40;0.40;;;20.60;62.20;;;20.69;45.09;95026.34;4846746;29;20259;-75
2022/11/08 09:35:29;;;;;;;0.40;0.40;;;20.50;62.10;;;20.68;44.96;95007.91;4848380;29;20191;-74
2022/11/08 09:37:57;;;;;;;0.40;0.40;;;20.60;62.20;;;20.70;45.04;95019.94;4861870;29;20614;-75
2022/11/08 09:40:45;;;;;;;0.40;0.40;;;20.60;62.20;;;20.70;44.75;95019.94;4815958;29;20199;-74
2022/11/08 09:43:42;;;;;;;0.50;0.50;;;20.60;62.20;;;20.68;44.78;95015.91;4831742;29;20202;-75
2022/11/08 09:46:16;;;;;;;0.40;0.40;;;20.60;62.20;;;20.70;44.71;95011.94;4862104;29;20206;-74
2022/11/08 09:48:44;;;;;;;0.40;0.40;;;20.60;62.10;;;20.66;44.73;95010.03;4862272;29;20274;-74
2022/11/08 09:51:17;;;;;;;0.40;0.40;;;20.60;62.20;;;20.71;45.07;95007.41;4861756;29;20202;-74
2022/11/08 09:53:53;;;;;;;0.50;0.50;;;20.60;62.10;;;20.71;44.70;95018.06;4861962;29;20536;-74
2022/11/08 09:56:32;;;;;;;0.32;0.32;;;20.60;62.10;;;20.70;44.65;95006.63;4846372;29;20205;-74
2022/11/08 09:59:30;;;;;;;0.45;0.45;;;20.60;62.10;;;20.69;44.99;95005.00;4831224;29;20192;-75
2022/11/08 10:01:57;;;;;;;0.40;0.40;;;20.60;62.00;;;20.66;45.26;95000.19;4843266;29;20216;-74
2022/11/08 10:04:29;;;;;;;0.30;0.30;;;20.70;62.20;;;20.73;44.60;95002.69;4830855;29;20222;-75
2022/11/08 10:07:09;;;;;;;0.40;0.40;;;20.70;62.20;;;20.72;45.01;95007.19;4846320;29;20278;-74
2022/11/08 10:10:10;;;;;;;0.45;0.45;;;20.70;62.20;;;20.72;44.92;94993.06;4862649;29;20280;-75
2022/11/08 10:13:21;;;;;;;0.40;0.40;;;20.70;62.20;;;20.70;44.88;94989.81;4846299;29;20321;-74
2022/11/08 10:16:02;;;;;;;0.40;0.40;;;20.70;62.10;;;20.71;45.07;94989.56;4816174;29;20608;-74
2022/11/08 10:18:44;;;;;;;0.40;0.40;;;20.60;62.10;;;20.70;44.89;94982.63;4855299;29;20250;-77
2022/11/08 10:21:54;;;;;;;0.40;0.40;;;20.70;62.20;;;20.69;44.89;94983.69;4846344;29;20180;-75
2022/11/08 10:24:46;;;;;;;0.40;0.40;;;20.60;62.10;;;20.67;44.74;94985.78;4862521;29;20202;-77
2022/11/08 10:27:48;;;;;;;0.40;0.40;;;20.60;62.10;;;20.66;44.87;94988.72;4846278;29;20199;-77
2022/11/08 10:30:25;;;;;;;0.50;0.50;;;20.60;62.10;;;20.69;44.84;94981.03;4844765;29;20221;-77
2022/11/08 10:32:56;;;;;;;0.40;0.40;;;20.60;62.10;;;20.69;45.00;94978.34;4846453;29;20231;-77
2022/11/08 10:35:56;;;;;;;0.45;0.45;;;20.70;62.20;;;20.72;44.55;94985.06;4846689;29;20542;-77
2022/11/08 10:38:39;;;;;;;0.40;0.40;;;20.70;62.20;;;20.73;44.75;94986.69;4859787;29;20261;-76
2022/11/08 10:41:39;;;;;;;0.40;0.40;;;20.70;62.10;;;20.72;44.99;94987.72;4861629;29;20278;-76
2022/11/08 10:44:15;;;;;;;0.50;0.50;;;20.70;62.20;;;20.72;44.80;94985.88;4846464;29;20571;-77
2022/11/08 10:47:00;;;;;;;0.45;0.45;;;20.70;62.10;;;20.73;44.95;94981.34;4843017;29;20228;-74
2022/11/08 10:49:42;;;;;;;0.40;0.40;;;20.70;62.20;;;20.73;44.77;94978.69;4831014;29;20199;-74
2022/11/08 10:52:19;;;;;;;0.40;0.40;;;20.70;62.20;;;20.73;45.25;94974.16;4831020;29;20561;-77
2022/11/08 10:54:56;;;;;;;0.40;0.40;;;20.70;62.10;;;20.73;44.65;94966.16;4831572;29;20207;-74